createdAt,value
2019-05-11T00:00:40.698Z,93.64
2019-05-11T00:03:09.133Z,92.92
2019-05-11T00:05:37.537Z,93.10
2019-05-11T00:08:06.121Z,93.09
2019-05-11T00:10:34.509Z,93.02
2019-05-11T00:13:02.964Z,93.53
2019-05-11T00:15:31.374Z,93.25
2019-05-11T00:17:59.794Z,93.12
2019-05-11T00:20:28.284Z,93.50
2019-05-11T00:22:56.679Z,93.51
2019-05-11T00:25:25.211Z,93.81
2019-05-11T00:27:53.614Z,93.98
2019-05-11T00:30:22.034Z,94.27
2019-05-11T00:32:50.456Z,94.47
2019-05-11T00:35:18.870Z,94.74
2019-05-11T00:37:47.315Z,95.13
2019-05-11T00:40:15.867Z,95.17
2019-05-11T00:42:44.364Z,95.24
2019-05-11T00:45:13.000Z,95.27
2019-05-11T00:47:41.460Z,95.11
2019-05-11T00:50:11.046Z,95.16
2019-05-11T00:52:39.441Z,95.20
2019-05-11T00:55:08.823Z,95.40
2019-05-11T00:57:37.225Z,96.02
2019-05-11T01:00:08.274Z,95.94
2019-05-11T01:02:36.860Z,95.63
2019-05-11T01:05:06.708Z,95.61
2019-05-11T01:07:35.195Z,95.80
2019-05-11T01:10:21.819Z,96.08
2019-05-11T01:12:37.386Z,95.92
2019-05-11T01:15:06.274Z,96.01
2019-05-11T01:17:34.676Z,96.30
2019-05-11T01:20:03.274Z,96.39
2019-05-11T01:22:31.698Z,96.29
2019-05-11T01:25:00.124Z,96.37
2019-05-11T01:27:28.545Z,96.41
2019-05-11T01:29:57.021Z,96.31
2019-05-11T01:32:25.446Z,96.97
2019-05-11T01:34:53.855Z,96.93
2019-05-11T01:37:22.334Z,96.83
2019-05-11T01:39:50.785Z,96.96
2019-05-11T01:42:19.210Z,97.08
2019-05-11T01:44:47.627Z,97.15
2019-05-11T01:47:16.054Z,96.98
2019-05-11T01:49:44.465Z,97.11
2019-05-11T01:52:12.869Z,97.51
2019-05-11T01:54:41.378Z,97.63
2019-05-11T01:57:09.806Z,97.81
2019-05-11T01:59:38.376Z,97.61
2019-05-11T02:02:06.806Z,97.57
2019-05-11T02:04:35.217Z,97.43
2019-05-11T02:07:03.722Z,97.26
2019-05-11T02:09:32.206Z,96.47
2019-05-11T02:12:00.633Z,96.94
2019-05-11T02:14:29.203Z,97.29
2019-05-11T02:16:57.816Z,97.36
2019-05-11T02:19:26.266Z,97.72
2019-05-11T02:21:54.665Z,97.81
2019-05-11T02:24:23.445Z,98.00
2019-05-11T02:26:51.878Z,98.13
2019-05-11T02:29:20.314Z,97.94
2019-05-11T02:31:48.716Z,97.98
2019-05-11T02:34:17.143Z,98.20
2019-05-11T02:36:45.573Z,98.16
2019-05-11T02:39:14.047Z,98.25
2019-05-11T02:41:43.015Z,98.35
2019-05-11T02:44:11.584Z,98.29
2019-05-11T02:46:40.013Z,98.27
2019-05-11T02:49:08.495Z,98.33
2019-05-11T02:51:38.568Z,98.06
2019-05-11T02:54:07.969Z,98.11
2019-05-11T02:56:36.396Z,98.19
2019-05-11T02:59:04.876Z,98.03
2019-05-11T03:01:33.288Z,97.93
2019-05-11T03:04:01.723Z,98.05
2019-05-11T03:06:30.149Z,98.26
2019-05-11T03:08:58.524Z,98.58
2019-05-11T03:11:26.958Z,98.36
2019-05-11T03:13:55.369Z,98.02
2019-05-11T03:16:23.789Z,98.64
2019-05-11T03:18:52.312Z,98.94
2019-05-11T03:21:20.719Z,99.13
2019-05-11T03:23:49.176Z,99.30
2019-05-11T03:26:17.619Z,99.21
2019-05-11T03:28:46.033Z,98.82
2019-05-11T03:31:14.476Z,98.68
2019-05-11T03:33:42.882Z,98.53
2019-05-11T03:36:11.375Z,99.11
2019-05-11T03:38:39.771Z,99.34
2019-05-11T03:41:08.215Z,99.60
2019-05-11T03:43:36.685Z,99.38
2019-05-11T03:46:05.110Z,99.46
2019-05-11T03:48:33.536Z,99.58
2019-05-11T03:51:01.947Z,99.47
2019-05-11T03:53:30.344Z,99.45
2019-05-11T03:55:58.829Z,99.29
2019-05-11T03:58:27.300Z,99.29
2019-05-11T04:00:55.691Z,99.12
2019-05-11T04:03:24.169Z,99.20
2019-05-11T04:05:52.597Z,99.48
2019-05-11T04:08:21.022Z,99.54
2019-05-11T04:10:49.433Z,99.65
2019-05-11T04:13:17.826Z,99.97
2019-05-11T04:15:46.254Z,100.00
2019-05-11T04:18:14.699Z,100.00
2019-05-11T04:20:43.171Z,100.00
2019-05-11T04:23:11.607Z,99.36
2019-05-11T04:25:40.072Z,99.52
2019-05-11T04:28:08.576Z,99.42
2019-05-11T04:30:37.015Z,98.84
2019-05-11T04:33:05.498Z,99.28
2019-05-11T04:35:34.100Z,99.24
2019-05-11T04:38:02.517Z,99.36
2019-05-11T04:40:31.074Z,99.49
2019-05-11T04:42:59.495Z,99.71
2019-05-11T04:45:30.307Z,99.88
2019-05-11T04:47:58.057Z,99.88
2019-05-11T04:50:26.568Z,99.85
2019-05-11T04:52:55.065Z,99.69
2019-05-11T04:55:23.564Z,99.51
2019-05-11T04:57:52.004Z,99.42
2019-05-11T05:00:20.483Z,99.58
2019-05-11T05:02:48.885Z,99.46
2019-05-11T05:05:17.306Z,99.46
2019-05-11T05:07:48.893Z,99.19
2019-05-11T05:10:19.947Z,98.80
2019-05-11T05:12:50.396Z,98.84
2019-05-11T05:15:16.306Z,99.03
2019-05-11T05:17:44.790Z,98.92
2019-05-11T05:20:13.658Z,98.91
2019-05-11T05:22:42.082Z,99.06
2019-05-11T05:25:10.642Z,99.00
2019-05-11T05:27:39.105Z,99.12
2019-05-11T05:30:08.292Z,98.94
2019-05-11T05:32:37.212Z,99.03
2019-05-11T05:35:07.383Z,99.05
2019-05-11T05:37:37.030Z,99.26
2019-05-11T05:40:05.891Z,99.34
2019-05-11T05:42:34.369Z,99.41
2019-05-11T05:45:02.769Z,99.63
2019-05-11T05:47:31.201Z,99.70
2019-05-11T05:49:59.612Z,99.90
2019-05-11T05:52:28.049Z,99.91
2019-05-11T05:54:56.448Z,99.91
2019-05-11T05:57:24.874Z,99.81
2019-05-11T05:59:53.298Z,99.82
2019-05-11T06:02:21.737Z,99.86
2019-05-11T06:04:50.185Z,99.76
2019-05-11T06:07:18.588Z,99.85
2019-05-11T06:09:46.986Z,99.88
2019-05-11T06:12:15.519Z,100.00
2019-05-11T06:14:43.931Z,100.00
2019-05-11T06:17:12.525Z,100.00
2019-05-11T06:19:40.911Z,100.00
2019-05-11T06:22:09.386Z,100.00
2019-05-11T06:24:37.803Z,100.00
2019-05-11T06:27:06.338Z,99.99
2019-05-11T06:29:34.822Z,100.00
2019-05-11T06:32:03.263Z,100.00
2019-05-11T06:34:31.650Z,99.98
2019-05-11T06:37:00.190Z,99.95
2019-05-11T06:39:28.592Z,99.97
2019-05-11T06:41:57.009Z,99.91
2019-05-11T06:44:25.429Z,99.79
2019-05-11T06:46:53.878Z,99.37
2019-05-11T06:49:22.299Z,98.63
2019-05-11T06:51:50.726Z,98.90
2019-05-11T06:54:19.149Z,98.82
2019-05-11T06:56:47.573Z,99.23
2019-05-11T06:59:16.010Z,98.38
2019-05-11T07:01:44.484Z,98.66
2019-05-11T07:04:13.069Z,98.97
2019-05-11T07:06:41.478Z,98.62
2019-05-11T07:09:09.907Z,98.60
2019-05-11T07:11:38.329Z,98.83
2019-05-11T07:14:19.826Z,98.74
2019-05-11T07:16:36.941Z,98.94
2019-05-11T07:19:05.463Z,99.30
2019-05-11T07:21:33.920Z,99.18
2019-05-11T07:24:02.460Z,98.63
2019-05-11T07:26:30.916Z,99.04
2019-05-11T07:28:59.342Z,98.71
2019-05-11T07:31:27.777Z,99.11
2019-05-11T07:33:58.589Z,98.69
2019-05-11T07:36:28.237Z,98.59
2019-05-11T07:38:58.028Z,98.81
2019-05-11T07:41:28.083Z,98.75
2019-05-11T07:43:58.888Z,99.08
2019-05-11T07:46:28.855Z,98.80
2019-05-11T07:48:58.498Z,98.15
2019-05-11T07:51:28.736Z,98.13
2019-05-11T07:53:57.880Z,97.23
2019-05-11T07:56:28.562Z,97.85
2019-05-11T07:58:58.103Z,97.86
2019-05-11T08:01:28.166Z,98.46
2019-05-11T08:03:58.651Z,98.57
2019-05-11T08:06:28.528Z,97.78
2019-05-11T08:08:58.844Z,97.80
2019-05-11T08:11:30.787Z,97.78
2019-05-11T08:13:58.434Z,97.29
2019-05-11T08:16:28.545Z,96.76
2019-05-11T08:18:58.830Z,98.19
2019-05-11T08:21:28.367Z,97.05
2019-05-11T08:23:58.801Z,96.92
2019-05-11T08:26:28.241Z,96.40
2019-05-11T08:28:57.871Z,96.67
2019-05-11T08:31:27.955Z,96.86
2019-05-11T08:33:58.327Z,96.16
2019-05-11T08:36:28.859Z,96.45
2019-05-11T08:38:58.490Z,96.72
2019-05-11T08:41:28.144Z,96.90
2019-05-11T08:43:58.665Z,97.42
2019-05-11T08:46:27.910Z,97.06
2019-05-11T08:48:56.592Z,96.89
2019-05-11T08:51:24.990Z,97.16
2019-05-11T08:53:53.599Z,97.18
2019-05-11T08:56:22.098Z,97.66
2019-05-11T08:58:50.519Z,97.53
2019-05-11T09:01:19.032Z,97.18
2019-05-11T09:03:47.883Z,97.12
2019-05-11T09:06:17.918Z,96.55
2019-05-11T09:08:49.136Z,96.14
2019-05-11T09:11:19.085Z,96.03
2019-05-11T09:13:48.864Z,96.19
2019-05-11T09:16:18.921Z,96.26
2019-05-11T09:18:48.094Z,96.12
2019-05-11T09:21:18.777Z,95.41
2019-05-11T09:23:48.611Z,95.37
2019-05-11T09:26:18.125Z,94.95
2019-05-11T09:28:47.685Z,95.29
2019-05-11T09:31:18.629Z,94.97
2019-05-11T09:33:48.017Z,95.43
2019-05-11T09:36:18.142Z,95.43
2019-05-11T09:38:48.859Z,94.14
2019-05-11T09:41:18.119Z,94.61
2019-05-11T09:43:48.383Z,94.62
2019-05-11T09:46:18.946Z,93.84
2019-05-11T09:48:48.316Z,93.08
2019-05-11T09:51:18.495Z,94.44
2019-05-11T09:53:48.321Z,93.32
2019-05-11T09:56:18.335Z,93.10
2019-05-11T09:58:48.015Z,93.08
2019-05-11T10:01:18.279Z,92.60
2019-05-11T10:03:48.125Z,91.25
2019-05-11T10:06:19.042Z,91.97
2019-05-11T10:08:48.659Z,92.06
2019-05-11T10:11:18.927Z,90.48
2019-05-11T10:13:47.823Z,90.69
2019-05-11T10:16:17.912Z,89.40
2019-05-11T10:18:48.876Z,89.07
2019-05-11T10:21:18.803Z,89.24
2019-05-11T10:23:48.966Z,87.22
2019-05-11T10:26:18.715Z,88.12
2019-05-11T10:28:48.194Z,88.24
2019-05-11T10:31:18.001Z,87.92
2019-05-11T10:33:48.864Z,85.26
2019-05-11T10:36:18.844Z,87.31
2019-05-11T10:38:48.754Z,85.85
2019-05-11T10:41:18.275Z,85.30
2019-05-11T10:43:48.905Z,84.51
2019-05-11T10:46:23.147Z,83.85
2019-05-11T10:48:48.311Z,82.77
2019-05-11T10:51:18.465Z,85.33
2019-05-11T10:53:51.296Z,85.46
2019-05-11T10:56:17.830Z,83.94
2019-05-11T10:58:48.293Z,83.40
2019-05-11T11:01:18.189Z,81.20
2019-05-11T11:03:48.315Z,82.02
2019-05-11T11:06:18.783Z,82.90
2019-05-11T11:08:48.636Z,83.23
2019-05-11T11:11:18.505Z,85.28
2019-05-11T11:13:48.044Z,84.37
2019-05-11T11:16:34.665Z,82.73
2019-05-11T11:18:48.588Z,83.12
2019-05-11T11:21:22.407Z,83.96
2019-05-11T11:23:48.161Z,80.54
2019-05-11T11:26:18.419Z,78.33
2019-05-11T11:28:47.702Z,77.88
2019-05-11T11:31:18.552Z,80.21
2019-05-11T11:33:48.871Z,80.90
2019-05-11T11:36:17.925Z,80.36
2019-05-11T11:38:47.911Z,78.51
2019-05-11T11:41:18.593Z,78.97
2019-05-11T11:43:48.399Z,78.58
2019-05-11T11:46:18.741Z,77.78
2019-05-11T11:48:48.938Z,79.02
2019-05-11T11:51:18.769Z,77.96
2019-05-11T11:53:48.042Z,80.27
2019-05-11T11:56:18.916Z,81.91
2019-05-11T11:58:48.750Z,80.26
2019-05-11T12:01:18.978Z,78.88
2019-05-11T12:03:48.869Z,79.23
2019-05-11T12:06:18.353Z,77.71
2019-05-11T12:08:49.614Z,77.54
2019-05-11T12:11:18.603Z,76.84
2019-05-11T12:13:47.896Z,77.52
2019-05-11T12:16:17.990Z,76.64
2019-05-11T12:18:48.655Z,76.74
2019-05-11T12:21:18.527Z,76.32
2019-05-11T12:23:48.531Z,77.36
2019-05-11T12:26:17.877Z,78.29
2019-05-11T12:28:48.719Z,75.79
2019-05-11T12:31:18.381Z,76.26
2019-05-11T12:33:48.197Z,73.55
2019-05-11T12:36:18.702Z,74.29
2019-05-11T12:38:48.792Z,75.62
2019-05-11T12:41:18.959Z,75.32
2019-05-11T12:43:49.000Z,72.85
2019-05-11T12:46:18.910Z,72.88
2019-05-11T12:48:48.441Z,73.67
2019-05-11T12:51:18.693Z,72.21
2019-05-11T12:53:47.765Z,70.65
2019-05-11T12:56:18.764Z,69.08
2019-05-11T12:58:48.983Z,66.78
2019-05-11T13:01:18.799Z,69.60
2019-05-11T13:03:49.230Z,70.91
2019-05-11T13:06:19.127Z,71.09
2019-05-11T13:08:48.058Z,71.19
2019-05-11T13:11:18.793Z,71.26
2019-05-11T13:13:48.438Z,72.50
2019-05-11T13:16:18.288Z,72.54
2019-05-11T13:18:48.716Z,73.85
2019-05-11T13:21:18.346Z,73.89
2019-05-11T13:23:48.824Z,73.93
2019-05-11T13:26:17.958Z,72.92
2019-05-11T13:28:48.416Z,73.76
2019-05-11T13:31:18.601Z,73.30
2019-05-11T13:33:48.050Z,74.15
2019-05-11T13:36:18.674Z,71.63
2019-05-11T13:38:48.384Z,73.22
2019-05-11T13:41:18.728Z,71.88
2019-05-11T13:43:48.608Z,68.19
2019-05-11T13:46:17.921Z,68.52
2019-05-11T13:48:47.667Z,65.87
2019-05-11T13:51:18.235Z,64.95
2019-05-11T13:53:48.141Z,64.09
2019-05-11T13:56:18.393Z,63.63
2019-05-11T13:58:48.811Z,65.77
2019-05-11T14:01:18.474Z,63.14
2019-05-11T14:03:48.385Z,62.69
2019-05-11T14:06:18.395Z,64.11
2019-05-11T14:08:48.214Z,59.72
2019-05-11T14:11:18.148Z,60.17
2019-05-11T14:13:47.997Z,62.14
2019-05-11T14:16:18.659Z,60.77
2019-05-11T14:18:48.849Z,63.00
2019-05-11T14:21:18.502Z,63.35
2019-05-11T14:23:48.365Z,62.33
2019-05-11T14:26:19.119Z,62.15
2019-05-11T14:31:18.978Z,61.86
2019-05-11T14:32:21.419Z,63.03
2019-05-11T14:33:48.838Z,63.52
2019-05-11T14:36:18.506Z,61.94
2019-05-11T14:38:48.768Z,60.74
2019-05-11T14:41:18.257Z,60.88
2019-05-11T14:43:48.784Z,61.58
2019-05-11T14:46:18.128Z,58.57
2019-05-11T14:48:48.056Z,61.35
2019-05-11T14:51:17.945Z,62.85
2019-05-11T14:53:48.096Z,60.27
2019-05-11T14:56:19.026Z,62.86
2019-05-11T14:58:49.023Z,57.95
2019-05-11T15:01:18.287Z,59.71
2019-05-11T15:03:48.570Z,62.59
2019-05-11T15:06:18.918Z,61.93
2019-05-11T15:08:47.903Z,65.83
2019-05-11T15:11:18.840Z,62.96
2019-05-11T15:13:48.874Z,65.73
2019-05-11T15:16:18.730Z,68.93
2019-05-11T15:18:48.488Z,67.41
2019-05-11T15:21:18.836Z,66.20
2019-05-11T15:23:47.806Z,67.75
2019-05-11T15:26:18.522Z,67.50
2019-05-11T15:28:48.614Z,68.02
2019-05-11T15:31:21.921Z,66.68
2019-05-11T15:33:48.853Z,66.67
2019-05-11T15:36:19.328Z,67.59
2019-05-11T15:38:48.099Z,68.54
2019-05-11T15:41:17.742Z,68.52
2019-05-11T15:43:48.075Z,68.48
2019-05-11T15:46:19.493Z,69.00
2019-05-11T15:48:56.608Z,67.24
2019-05-11T15:51:18.743Z,68.41
2019-05-11T15:53:47.617Z,70.77
2019-05-11T15:56:19.107Z,67.58
2019-05-11T15:58:48.619Z,66.75
2019-05-11T16:01:18.603Z,67.92
2019-05-11T16:03:49.677Z,67.74
2019-05-11T16:06:18.647Z,67.97
2019-05-11T16:08:47.147Z,65.42
2019-05-11T16:11:18.127Z,68.85
2019-05-11T16:13:48.225Z,66.73
2019-05-11T16:16:15.957Z,65.57
2019-05-11T16:18:44.386Z,70.80
2019-05-11T16:21:12.848Z,73.08
2019-05-11T16:23:41.274Z,72.82
2019-05-11T16:26:09.682Z,71.17
2019-05-11T16:28:38.463Z,72.57
2019-05-11T16:31:09.202Z,73.69
2019-05-11T16:33:37.266Z,73.55
2019-05-11T16:36:08.792Z,73.12
2019-05-11T16:38:38.023Z,73.21
2019-05-11T16:41:06.315Z,73.41
2019-05-11T16:43:34.803Z,72.27
2019-05-11T16:46:03.224Z,70.80
2019-05-11T16:48:31.724Z,73.72
2019-05-11T16:51:00.134Z,69.57
2019-05-11T16:53:28.608Z,67.66
2019-05-11T16:55:57.675Z,66.61
2019-05-11T16:58:27.809Z,65.34
2019-05-11T17:00:58.172Z,67.61
2019-05-11T17:03:27.973Z,65.08
2019-05-11T17:05:58.709Z,63.79
2019-05-11T17:08:27.634Z,62.12
2019-05-11T17:10:59.634Z,68.40
2019-05-11T17:13:28.258Z,67.60
2019-05-11T17:15:58.256Z,66.50
2019-05-11T17:18:28.325Z,67.39
2019-05-11T17:20:58.484Z,65.86
2019-05-11T17:23:30.965Z,60.72
2019-05-11T17:25:57.934Z,62.03
2019-05-11T17:28:26.539Z,62.28
2019-05-11T17:30:54.968Z,61.26
2019-05-11T17:33:23.470Z,56.19
2019-05-11T17:35:51.872Z,56.34
2019-05-11T17:38:20.453Z,56.78
2019-05-11T17:40:48.867Z,55.83
2019-05-11T17:43:18.131Z,56.47
2019-05-11T17:45:48.002Z,57.25
2019-05-11T17:48:17.873Z,57.19
2019-05-11T17:50:46.453Z,56.64
2019-05-11T17:53:14.858Z,57.92
2019-05-11T17:55:43.287Z,57.61
2019-05-11T17:58:11.702Z,57.15
2019-05-11T18:00:40.240Z,58.42
2019-05-11T18:03:11.157Z,54.18
2019-05-11T18:05:38.849Z,54.39
2019-05-11T18:08:08.758Z,54.35
2019-05-11T18:10:38.441Z,57.04
2019-05-11T18:13:07.034Z,56.54
2019-05-11T18:15:37.836Z,55.32
2019-05-11T18:18:05.884Z,56.69
2019-05-11T18:20:34.442Z,55.27
2019-05-11T18:23:02.949Z,54.97
2019-05-11T18:25:31.466Z,55.46
2019-05-11T18:27:59.897Z,55.85
2019-05-11T18:30:29.302Z,55.47
2019-05-11T18:32:59.518Z,56.56
2019-05-11T18:35:28.100Z,59.09
2019-05-11T18:37:56.515Z,55.22
2019-05-11T18:40:24.994Z,56.84
2019-05-11T18:42:53.434Z,54.81
2019-05-11T18:45:21.855Z,57.64
2019-05-11T18:47:50.294Z,58.00
2019-05-11T18:50:29.736Z,59.83
2019-05-11T18:52:49.295Z,58.29
2019-05-11T18:55:18.958Z,57.37
2019-05-11T18:57:48.997Z,57.33
2019-05-11T19:00:18.509Z,58.39
2019-05-11T19:02:49.351Z,55.90
2019-05-11T19:05:18.010Z,58.36
2019-05-11T19:07:48.158Z,57.84
2019-05-11T19:10:17.144Z,58.16
2019-05-11T19:12:45.608Z,58.19
2019-05-11T19:15:14.482Z,59.88
2019-05-11T19:17:42.898Z,59.90
2019-05-11T19:20:11.668Z,59.08
2019-05-11T19:22:40.168Z,59.30
2019-05-11T19:25:09.292Z,58.57
2019-05-11T19:27:37.752Z,60.80
2019-05-11T19:30:08.490Z,60.35
2019-05-11T19:32:38.378Z,59.56
2019-05-11T19:35:08.968Z,60.06
2019-05-11T19:37:38.595Z,59.56
2019-05-11T19:40:09.098Z,62.26
2019-05-11T19:42:58.712Z,62.39
2019-05-11T19:45:29.073Z,62.91
2019-05-11T19:47:57.749Z,63.35
2019-05-11T19:50:26.432Z,62.57
2019-05-11T19:52:54.874Z,62.50
2019-05-11T19:55:23.275Z,60.16
2019-05-11T19:57:51.707Z,61.75
2019-05-11T20:00:20.343Z,62.63
2019-05-11T20:02:48.743Z,62.44
2019-05-11T20:05:18.394Z,61.35
2019-05-11T20:07:49.301Z,62.58
2019-05-11T20:10:19.404Z,62.15
2019-05-11T20:12:48.593Z,62.61
2019-05-11T20:15:18.996Z,61.66
2019-05-11T20:20:37.679Z,63.14
2019-05-11T20:23:10.389Z,60.57
2019-05-11T20:25:38.884Z,61.52
2019-05-11T20:28:07.453Z,62.49
2019-05-11T20:30:36.146Z,62.78
2019-05-11T20:33:11.392Z,61.00
2019-05-11T20:35:43.807Z,60.75
2019-05-11T20:38:12.311Z,60.86
2019-05-11T20:40:48.478Z,61.22
2019-05-11T20:43:18.566Z,60.88
2019-05-11T20:45:48.637Z,61.04
2019-05-11T20:48:27.907Z,62.89
2019-05-11T20:51:00.786Z,63.40
2019-05-11T20:53:30.986Z,64.22
2019-05-11T20:56:01.043Z,65.25
2019-05-11T20:58:31.349Z,62.78
2019-05-11T21:00:59.941Z,62.72
2019-05-11T21:03:28.593Z,63.73
2019-05-11T21:05:58.579Z,65.26
2019-05-11T21:08:28.323Z,65.29
2019-05-11T21:10:59.954Z,65.59
2019-05-11T21:13:31.255Z,64.14
2019-05-11T21:15:59.738Z,65.68
2019-05-11T21:18:28.790Z,63.99
2019-05-11T21:20:57.749Z,63.16
2019-05-11T21:23:28.801Z,64.77
2019-05-11T21:25:56.783Z,63.63
2019-05-11T21:28:30.364Z,65.45
2019-05-11T21:30:58.598Z,66.22
2019-05-11T21:33:28.319Z,67.49
2019-05-11T21:36:00.469Z,65.42
2019-05-11T21:38:31.573Z,65.97
2019-05-11T21:40:57.960Z,66.21
2019-05-11T21:43:29.676Z,65.22
2019-05-11T21:46:01.317Z,64.71
2019-05-11T21:48:31.605Z,66.10
2019-05-11T21:51:00.247Z,67.37
2019-05-11T21:53:31.763Z,68.06
2019-05-11T21:56:01.877Z,67.25
2019-05-11T21:58:33.568Z,68.26
2019-05-11T22:01:03.898Z,67.70
2019-05-11T22:03:38.167Z,68.50
2019-05-11T22:06:08.578Z,69.32
2019-05-11T22:08:38.658Z,67.12
2019-05-11T22:11:08.673Z,68.14
2019-05-11T22:13:39.111Z,67.98
2019-05-11T22:16:08.668Z,68.47
2019-05-11T22:18:42.840Z,67.81
2019-05-11T22:21:12.740Z,69.57
2019-05-11T22:23:41.330Z,68.05
2019-05-11T22:26:09.928Z,68.15
2019-05-11T22:28:40.051Z,69.57
2019-05-11T22:31:11.745Z,69.26
2019-05-11T22:33:40.273Z,69.73
2019-05-11T22:36:08.879Z,69.82
2019-05-11T22:38:38.685Z,69.53
2019-05-11T22:41:11.276Z,69.74
2019-05-11T22:43:39.883Z,70.97
2019-05-11T22:46:11.614Z,71.44
2019-05-11T22:48:48.961Z,72.48
2019-05-11T22:51:18.353Z,71.40
2019-05-11T22:53:48.089Z,70.61
2019-05-11T22:56:17.555Z,70.99
2019-05-11T22:58:50.512Z,70.84
2019-05-11T23:01:19.131Z,71.57
2019-05-11T23:03:47.689Z,71.59
2019-05-11T23:06:18.068Z,71.73
2019-05-11T23:08:48.323Z,72.93
2019-05-11T23:11:17.960Z,72.05
2019-05-11T23:13:47.910Z,74.63
2019-05-11T23:16:18.039Z,74.26
2019-05-11T23:18:48.123Z,73.34
2019-05-11T23:21:16.654Z,72.77
2019-05-11T23:23:45.078Z,74.28
2019-05-11T23:26:13.530Z,74.16
2019-05-11T23:28:41.939Z,74.46
2019-05-11T23:31:10.478Z,74.85
2019-05-11T23:33:38.898Z,73.35
2019-05-11T23:36:07.842Z,72.77
2019-05-11T23:38:38.533Z,74.44
2019-05-11T23:41:08.294Z,73.93
2019-05-11T23:43:38.423Z,74.57
2019-05-11T23:46:08.262Z,75.43
2019-05-11T23:48:38.611Z,74.23
2019-05-11T23:51:08.757Z,75.34
2019-05-11T23:53:38.733Z,75.27
2019-05-11T23:56:07.431Z,75.05
2019-05-11T23:58:35.832Z,74.41
